Flight Track Log - Related Links

Times and Time Zones

All times are in EDT time to prevent confusion due to time zone crossing. See the UCA1001 flight status page for this flight to view local times or setup timezone preferences in your user account.

Time Position Orientation Groundspeed Altitude Reporting Facility
EDT Latitude Longitude Course Direction KTS MPH feet Rate Location/Type
Thu 12:56:42 AM 43.1078 -76.1189 271° West 108 124 1,400  Level Boston Center
Thu 12:57:11 AM 43.1081 -76.1422 271° West 118 136 2,100 1,846 Climbing Boston Center
Thu 12:58:13 AM 43.0797 -76.1828 226° Southwest 191 220 4,200 1,934 Climbing Boston Center
Thu 12:59:12 AM 43.0275 -76.1633 165° South 209 241 6,000 1,645 Climbing Boston Center
Thu 12:59:15 AM 43.0386 -76.1667 348° North 191 220 5,900  Descending Boston Center
Thu 01:00:15 AM 42.9736 -76.1564 173° South 230 265 6,000 51 Climbing Boston Center
Thu 01:01:12 AM 42.9008 -76.1386 170° South 263 303 6,000  Level Boston Center
Thu 01:01:15 AM 42.8872 -76.1339 166° South 271 312 6,000  Level Boston Center
Thu 01:02:13 AM 42.8289 -76.1208 171° South 265 305 6,000  Level Boston Center
Thu 01:02:16 AM 42.8153 -76.1169 168° South 266 306 6,000  Level Boston Center
Thu 01:03:13 AM 42.7575 -76.1064 172° South 262 302 6,000  Level Boston Center
Thu 01:03:16 AM 42.7431 -76.1003 163° South 265 305 6,000  Level Boston Center
Thu 01:04:13 AM 42.6833 -76.0878 171° South 268 308 6,000  Level Boston Center
Thu 01:04:16 AM 42.6711 -76.0836 166° South 264 304 6,000  Level Boston Center
Thu 01:05:13 AM 42.5983 -76.0675 171° South 261 300 6,000  Level Boston Center
Thu 01:05:16 AM 42.5925 -76.0678 182° South 260 299 6,000  Level Boston Center
Thu 01:06:16 AM 42.5281 -76.0531 170° South 258 297 6,000  Level Boston Center
Thu 01:07:13 AM 42.4561 -76.0347 169° South 261 300 6,000  Level Boston Center
Thu 01:08:13 AM 42.3889 -76.0056 162° South 258 297 6,000  Level Boston Center
Thu 01:09:13 AM 42.3228 -75.9503 148° Southeast 274 315 6,000  Level Boston Center
Thu 01:10:14 AM 42.2617 -75.9028 150° Southeast 273 314 6,000  Level Boston Center
Thu 01:11:14 AM 42.2006 -75.8500 147° Southeast 266 306 6,000 -400 Level Boston Center
Thu 01:12:14 AM 42.1589 -75.8450 175° South 170 196 5,200 -900 Descending Boston Center
Thu 01:13:14 AM 42.1489 -75.8906 254° West 130 150 4,200 -1,150 Descending Boston Center
Thu 01:14:14 AM 42.1531 -75.9283 278° West 107 123 2,900 -885 Descending Boston Center
Thu 01:15:16 AM 42.1767 -75.9497 326° Northwest 106 122 2,400 -450 Descending Boston Center
Thu 01:16:14 AM 42.2014 -75.9681 331° Northwest 106 122 2,000 -414 Descending Boston Center
Thu 01:18:00 AM 42.2000 -75.9667 North  Level FlightAware Approximate

Login

Don't have an account? Register now (free) for customized features, flight alerts, and more!